Time;durP1;ratioP1;P1;durP2;ratioP2;P2;SDS_P1;SDS_P2;PMS_P1;PMS_P2;Temp;Humidity;BMP_temperature;BMP_pressure;BME280_temperature;BME280_humidity;BME280_pressure;Samples;Min_cycle;Max_cycle;Signal;HPM_P1;HPM_P2
2023/05/23 00:02:14;;;;;;;68.60;61.63;;;;;;;;;;5040695;28;20848;-82
2023/05/23 00:04:43;;;;;;;64.00;58.07;;;;;;;;;;5040400;28;20474;-82
2023/05/23 00:07:10;;;;;;;65.57;58.90;;;;;;;;;;5040823;28;20431;-82
2023/05/23 00:09:37;;;;;;;72.87;66.20;;;;;;;;;;5041745;28;20496;-81
2023/05/23 00:12:04;;;;;;;73.97;67.33;;;;;;;;;;5041350;28;20533;-82
2023/05/23 00:14:32;;;;;;;73.27;66.27;;;;;;;;;;5041136;28;20422;-82
2023/05/23 00:17:00;;;;;;;71.87;65.60;;;;;;;;;;5040106;28;20527;-81
2023/05/23 00:19:27;;;;;;;73.57;66.70;;;;;;;;;;5040102;28;20479;-82
2023/05/23 00:21:59;;;;;;;72.47;65.87;;;;;;;;;;5040903;28;20498;-82
2023/05/23 00:24:26;;;;;;;71.97;65.77;;;;;;;;;;5040632;28;20450;-81
2023/05/23 00:26:53;;;;;;;68.10;62.20;;;;;;;;;;5040050;28;20451;-82
2023/05/23 00:29:20;;;;;;;76.33;68.90;;;;;;;;;;5040778;28;20463;-82
2023/05/23 00:31:47;;;;;;;77.87;70.60;;;;;;;;;;5041482;28;20447;-82
2023/05/23 00:34:14;;;;;;;75.90;69.17;;;;;;;;;;5041186;28;20459;-82
2023/05/23 00:36:42;;;;;;;73.13;66.23;;;;;;;;;;5040722;28;20471;-82
2023/05/23 00:39:17;;;;;;;74.60;68.30;;;;;;;;;;5040906;28;20541;-81
2023/05/23 00:41:44;;;;;;;76.40;69.50;;;;;;;;;;5039970;28;20439;-81
2023/05/23 00:44:11;;;;;;;76.23;69.63;;;;;;;;;;5039661;28;20475;-81
2023/05/23 00:46:38;;;;;;;81.10;73.80;;;;;;;;;;5040238;28;20454;-81
2023/05/23 00:49:05;;;;;;;79.20;72.27;;;;;;;;;;5039542;28;20502;-82
2023/05/23 00:51:33;;;;;;;78.33;71.67;;;;;;;;;;5039229;28;20430;-82
2023/05/23 00:54:01;;;;;;;78.43;71.80;;;;;;;;;;5040051;28;20486;-81
2023/05/23 00:56:29;;;;;;;80.07;73.57;;;;;;;;;;5038458;28;20432;-81
2023/05/23 00:58:56;;;;;;;83.07;75.47;;;;;;;;;;5039504;28;20474;-82
2023/05/23 01:01:24;;;;;;;86.53;79.33;;;;;;;;;;5038901;28;20495;-82
2023/05/23 01:03:51;;;;;;;83.70;76.50;;;;;;;;;;5042922;28;20445;-81
2023/05/23 01:06:18;;;;;;;81.63;75.33;;;;;;;;;;5042788;28;20456;-82
2023/05/23 01:08:45;;;;;;;81.70;74.77;;;;;;;;;;5042940;28;20776;-81
2023/05/23 01:11:15;;;;;;;83.67;76.73;;;;;;;;;;5043130;28;21046;-81
2023/05/23 01:13:48;;;;;;;83.40;76.70;;;;;;;;;;5042901;28;20443;-82
2023/05/23 01:16:18;;;;;;;77.63;71.00;;;;;;;;;;5042492;28;20505;-82
2023/05/23 01:18:49;;;;;;;83.63;77.07;;;;;;;;;;5046292;28;20443;-82
2023/05/23 01:21:16;;;;;;;83.33;76.73;;;;;;;;;;5047436;28;20521;-83
2023/05/23 01:24:03;;;;;;;85.07;78.10;;;;;;;;;;5047662;28;20519;-83
2023/05/23 01:26:34;;;;;;;79.00;72.90;;;;;;;;;;5046566;28;20497;-82
2023/05/23 01:29:09;;;;;;;84.20;77.50;;;;;;;;;;5047072;28;20486;-83
2023/05/23 01:31:37;;;;;;;86.60;79.60;;;;;;;;;;5047046;28;20457;-82
2023/05/23 01:34:05;;;;;;;88.57;81.57;;;;;;;;;;5046134;28;20434;-82
2023/05/23 01:36:34;;;;;;;84.77;77.87;;;;;;;;;;5046272;28;20877;-82
2023/05/23 01:39:01;;;;;;;83.93;77.30;;;;;;;;;;5045172;28;20463;-82
2023/05/23 01:41:28;;;;;;;81.53;75.57;;;;;;;;;;5045772;28;20965;-82
2023/05/23 01:43:56;;;;;;;85.67;79.20;;;;;;;;;;5045032;28;20832;-82
2023/05/23 01:46:24;;;;;;;86.30;79.97;;;;;;;;;;5044554;28;20523;-83
2023/05/23 01:48:51;;;;;;;80.20;73.90;;;;;;;;;;5045390;28;20452;-83
2023/05/23 01:51:18;;;;;;;79.70;74.30;;;;;;;;;;5044102;28;20434;-82
2023/05/23 01:53:46;;;;;;;85.07;78.90;;;;;;;;;;5044876;28;20425;-82
2023/05/23 01:56:14;;;;;;;81.63;76.13;;;;;;;;;;5043658;28;20430;-81
2023/05/23 01:58:41;;;;;;;79.70;73.93;;;;;;;;;;5043881;28;20452;-82
2023/05/23 02:01:08;;;;;;;76.87;71.50;;;;;;;;;;5044011;28;20462;-82
2023/05/23 02:03:36;;;;;;;70.90;66.10;;;;;;;;;;5044062;28;20456;-81
2023/05/23 02:06:03;;;;;;;74.97;70.07;;;;;;;;;;5042853;28;20455;-82
2023/05/23 02:08:30;;;;;;;74.90;69.77;;;;;;;;;;5043972;28;20916;-82
2023/05/23 02:10:57;;;;;;;75.30;70.20;;;;;;;;;;5042519;28;20878;-82
2023/05/23 02:13:24;;;;;;;72.67;67.97;;;;;;;;;;5044265;28;20464;-82
2023/05/23 02:15:51;;;;;;;69.60;65.20;;;;;;;;;;5043161;28;20422;-82
2023/05/23 02:18:18;;;;;;;73.10;68.37;;;;;;;;;;5042738;28;20429;-82
2023/05/23 02:20:46;;;;;;;73.20;68.60;;;;;;;;;;5048936;28;20466;-82
2023/05/23 02:23:13;;;;;;;72.30;67.50;;;;;;;;;;5055192;28;20422;-81
2023/05/23 02:25:40;;;;;;;69.67;64.97;;;;;;;;;;5053030;28;20447;-81
2023/05/23 02:28:07;;;;;;;67.93;63.40;;;;;;;;;;5049054;28;20447;-82
2023/05/23 02:30:34;;;;;;;68.63;63.70;;;;;;;;;;5044584;28;20480;-81
2023/05/23 02:33:05;;;;;;;66.23;61.83;;;;;;;;;;5045517;28;20474;-81
2023/05/23 02:35:32;;;;;;;65.77;60.90;;;;;;;;;;5045000;28;20437;-82
2023/05/23 02:38:01;;;;;;;70.77;65.57;;;;;;;;;;5044548;28;20932;-81
2023/05/23 02:40:28;;;;;;;68.40;63.63;;;;;;;;;;5044922;28;20483;-82
2023/05/23 02:42:56;;;;;;;66.47;61.87;;;;;;;;;;5044576;28;20448;-82
2023/05/23 02:45:23;;;;;;;67.93;62.90;;;;;;;;;;5044294;28;20458;-82
2023/05/23 02:47:50;;;;;;;67.13;62.33;;;;;;;;;;5043202;28;20431;-82
2023/05/23 02:50:17;;;;;;;67.10;62.13;;;;;;;;;;5043734;28;20476;-82
2023/05/23 02:52:44;;;;;;;72.07;67.13;;;;;;;;;;5043483;28;20403;-82
2023/05/23 02:55:12;;;;;;;68.03;63.53;;;;;;;;;;5042534;28;20434;-82
2023/05/23 02:57:40;;;;;;;63.23;59.07;;;;;;;;;;5041625;28;20491;-82
2023/05/23 03:00:09;;;;;;;65.47;60.93;;;;;;;;;;5042326;28;20467;-82
2023/05/23 03:02:36;;;;;;;62.03;57.70;;;;;;;;;;5042674;28;20514;-82
2023/05/23 03:05:03;;;;;;;60.50;56.00;;;;;;;;;;5043089;28;20452;-82
2023/05/23 03:07:32;;;;;;;59.17;54.57;;;;;;;;;;5041956;28;20437;-82
2023/05/23 03:09:59;;;;;;;54.80;50.60;;;;;;;;;;5042677;28;20480;-82
2023/05/23 03:12:28;;;;;;;57.27;52.80;;;;;;;;;;5042539;28;20430;-82
2023/05/23 03:14:55;;;;;;;58.93;54.40;;;;;;;;;;5042618;28;20422;-81
2023/05/23 03:17:22;;;;;;;60.97;56.07;;;;;;;;;;5041336;28;20429;-82
2023/05/23 03:19:49;;;;;;;56.40;52.10;;;;;;;;;;5041902;28;20467;-81
2023/05/23 03:22:15;;;;;;;58.67;54.23;;;;;;;;;;5041211;28;20453;-82
2023/05/23 03:24:43;;;;;;;54.50;50.40;;;;;;;;;;5040696;28;20452;-82
2023/05/23 03:27:09;;;;;;;52.57;48.63;;;;;;;;;;5041656;28;20448;-82
2023/05/23 03:29:38;;;;;;;56.83;52.63;;;;;;;;;;5041543;28;20442;-82
2023/05/23 03:32:06;;;;;;;55.87;51.70;;;;;;;;;;5042031;28;20814;-82
2023/05/23 03:34:33;;;;;;;54.93;50.43;;;;;;;;;;5041433;28;20809;-82
2023/05/23 03:37:00;;;;;;;52.10;47.80;;;;;;;;;;5040795;28;20501;-82
2023/05/23 03:39:27;;;;;;;54.93;50.97;;;;;;;;;;5040633;28;20481;-82
2023/05/23 03:41:54;;;;;;;52.23;48.07;;;;;;;;;;5040754;28;20542;-82
2023/05/23 03:44:21;;;;;;;55.87;51.37;;;;;;;;;;5040405;28;20428;-82
2023/05/23 03:46:52;;;;;;;52.50;48.43;;;;;;;;;;5040188;28;20498;-82
2023/05/23 03:49:19;;;;;;;52.60;48.73;;;;;;;;;;5040591;28;20546;-81
2023/05/23 03:51:46;;;;;;;53.50;49.30;;;;;;;;;;5040070;28;20455;-83
2023/05/23 03:54:12;;;;;;;55.07;50.73;;;;;;;;;;5040577;28;20788;-82
2023/05/23 03:56:39;;;;;;;52.20;47.90;;;;;;;;;;5040522;28;20427;-81
2023/05/23 03:59:07;;;;;;;54.13;49.70;;;;;;;;;;5040348;28;20430;-82
2023/05/23 04:01:34;;;;;;;53.23;49.17;;;;;;;;;;5040390;28;20842;-82
2023/05/23 04:04:03;;;;;;;54.00;49.90;;;;;;;;;;5039647;28;20456;-82
2023/05/23 04:06:32;;;;;;;53.27;49.03;;;;;;;;;;5040241;28;20813;-82
2023/05/23 04:09:00;;;;;;;54.10;49.90;;;;;;;;;;5040286;28;20509;-82
2023/05/23 04:11:27;;;;;;;58.73;53.50;;;;;;;;;;5040506;28;20936;-81
2023/05/23 04:13:54;;;;;;;55.40;51.03;;;;;;;;;;5040261;28;20458;-81
2023/05/23 04:16:22;;;;;;;61.00;55.90;;;;;;;;;;5039094;28;20430;-81
2023/05/23 04:18:50;;;;;;;55.70;51.10;;;;;;;;;;5039891;28;20435;-81
2023/05/23 04:21:18;;;;;;;61.83;56.33;;;;;;;;;;5039810;28;20496;-82
2023/05/23 04:23:46;;;;;;;59.93;55.03;;;;;;;;;;5039759;28;20501;-82
2023/05/23 04:26:13;;;;;;;59.47;54.73;;;;;;;;;;5039499;28;20542;-82
2023/05/23 04:28:42;;;;;;;65.23;59.27;;;;;;;;;;5039116;28;20463;-81
2023/05/23 04:31:09;;;;;;;61.13;55.87;;;;;;;;;;5039255;28;20457;-82
2023/05/23 04:33:36;;;;;;;62.73;57.13;;;;;;;;;;5040126;28;20422;-80
2023/05/23 04:36:03;;;;;;;62.80;57.33;;;;;;;;;;5039730;28;20470;-80
2023/05/23 04:38:32;;;;;;;62.67;57.40;;;;;;;;;;5043605;28;20951;-80
2023/05/23 04:40:59;;;;;;;63.03;57.20;;;;;;;;;;5042998;28;20495;-80
2023/05/23 04:43:28;;;;;;;58.73;53.70;;;;;;;;;;5043518;28;20457;-80
2023/05/23 04:45:56;;;;;;;61.03;55.60;;;;;;;;;;5043229;28;20451;-80
2023/05/23 04:48:23;;;;;;;64.03;58.20;;;;;;;;;;5043709;28;20486;-80
2023/05/23 04:50:51;;;;;;;60.67;55.23;;;;;;;;;;5043338;28;20907;-80
2023/05/23 04:53:18;;;;;;;56.63;51.93;;;;;;;;;;5043149;28;20447;-80
2023/05/23 04:55:46;;;;;;;61.13;55.37;;;;;;;;;;5042865;28;20503;-80
2023/05/23 04:58:13;;;;;;;58.03;52.93;;;;;;;;;;5047821;28;20806;-80
2023/05/23 05:00:41;;;;;;;57.40;52.40;;;;;;;;;;5047405;28;20509;-80
2023/05/23 05:03:08;;;;;;;52.07;47.87;;;;;;;;;;5046587;28;20449;-82
2023/05/23 05:05:36;;;;;;;55.37;50.60;;;;;;;;;;5044091;28;20487;-82
2023/05/23 05:08:03;;;;;;;57.17;51.77;;;;;;;;;;5045447;28;20456;-81
2023/05/23 05:10:30;;;;;;;56.23;51.67;;;;;;;;;;5042885;28;20453;-81
2023/05/23 05:12:58;;;;;;;55.70;50.77;;;;;;;;;;5043821;28;20570;-80
2023/05/23 05:15:25;;;;;;;54.63;50.13;;;;;;;;;;5043076;28;20478;-81
2023/05/23 05:17:53;;;;;;;52.57;48.23;;;;;;;;;;5042723;28;20451;-80
2023/05/23 05:20:20;;;;;;;51.90;47.57;;;;;;;;;;5048362;28;20450;-81
2023/05/23 05:22:47;;;;;;;56.67;51.90;;;;;;;;;;5045578;28;20533;-81
2023/05/23 05:25:14;;;;;;;57.37;52.27;;;;;;;;;;5043810;28;20455;-80
2023/05/23 05:27:42;;;;;;;52.97;48.80;;;;;;;;;;5042635;28;20444;-81
2023/05/23 05:30:11;;;;;;;53.93;49.70;;;;;;;;;;5042535;28;20479;-80
2023/05/23 05:32:38;;;;;;;55.70;50.87;;;;;;;;;;5042482;28;20448;-80
2023/05/23 05:35:06;;;;;;;54.47;50.00;;;;;;;;;;5042150;28;20459;-80
2023/05/23 05:37:33;;;;;;;53.50;49.43;;;;;;;;;;5041426;28;20516;-80
2023/05/23 05:40:05;;;;;;;52.13;47.80;;;;;;;;;;5041992;28;20479;-79
2023/05/23 05:42:32;;;;;;;56.20;51.40;;;;;;;;;;5042708;28;20477;-80
2023/05/23 05:44:59;;;;;;;54.90;49.97;;;;;;;;;;5043303;28;20483;-80
2023/05/23 05:47:27;;;;;;;57.07;51.87;;;;;;;;;;5041199;28;20456;-80
2023/05/23 05:49:55;;;;;;;56.70;52.10;;;;;;;;;;5041942;28;20885;-80
2023/05/23 05:52:22;;;;;;;55.20;50.20;;;;;;;;;;5042763;28;20439;-80
2023/05/23 05:54:49;;;;;;;55.13;50.27;;;;;;;;;;5044097;28;20439;-81
2023/05/23 05:57:15;;;;;;;57.77;52.37;;;;;;;;;;5046313;28;20455;-81
2023/05/23 05:59:42;;;;;;;57.50;52.50;;;;;;;;;;5045366;28;20468;-81
2023/05/23 06:02:09;;;;;;;55.60;50.40;;;;;;;;;;5044941;28;20454;-81
2023/05/23 06:04:38;;;;;;;57.20;52.33;;;;;;;;;;5044250;28;20444;-81
2023/05/23 06:07:05;;;;;;;59.40;54.43;;;;;;;;;;5041711;28;20474;-80
2023/05/23 06:09:32;;;;;;;56.07;50.73;;;;;;;;;;5043518;28;20526;-81
2023/05/23 06:12:00;;;;;;;54.97;50.07;;;;;;;;;;5047720;28;20856;-80
2023/05/23 06:14:27;;;;;;;53.33;48.90;;;;;;;;;;5046352;28;20459;-81
2023/05/23 06:16:54;;;;;;;55.80;50.70;;;;;;;;;;5045733;28;20451;-81
2023/05/23 06:19:21;;;;;;;55.27;50.40;;;;;;;;;;5046129;28;20472;-81
2023/05/23 06:21:49;;;;;;;53.37;49.03;;;;;;;;;;5046239;28;20484;-81
2023/05/23 06:24:16;;;;;;;53.33;48.63;;;;;;;;;;5046132;28;20455;-81
2023/05/23 06:26:43;;;;;;;52.60;48.30;;;;;;;;;;5045813;28;20451;-81
2023/05/23 06:29:10;;;;;;;51.90;47.37;;;;;;;;;;5045728;28;20471;-81
2023/05/23 06:31:37;;;;;;;44.07;40.67;;;;;;;;;;5044738;28;20848;-81
2023/05/23 06:34:04;;;;;;;47.87;44.17;;;;;;;;;;5045438;28;20900;-81
2023/05/23 06:36:32;;;;;;;46.23;42.50;;;;;;;;;;5044832;28;20451;-81
2023/05/23 06:39:00;;;;;;;45.27;41.40;;;;;;;;;;5044882;28;20456;-81
2023/05/23 06:41:27;;;;;;;42.50;39.30;;;;;;;;;;5044231;28;21148;-81
2023/05/23 06:43:54;;;;;;;42.67;39.53;;;;;;;;;;5044666;28;20451;-81
2023/05/23 06:46:21;;;;;;;44.60;41.37;;;;;;;;;;5044078;28;20542;-81
2023/05/23 06:48:48;;;;;;;46.67;43.23;;;;;;;;;;5045011;28;20451;-81
2023/05/23 06:51:15;;;;;;;40.80;37.70;;;;;;;;;;5042939;28;20506;-81
2023/05/23 06:53:42;;;;;;;42.47;39.00;;;;;;;;;;5043983;28;20512;-81
2023/05/23 06:56:10;;;;;;;38.57;35.70;;;;;;;;;;5043659;28;21117;-81
2023/05/23 06:58:37;;;;;;;37.23;34.43;;;;;;;;;;5043739;28;20454;-81
2023/05/23 07:01:04;;;;;;;40.87;37.33;;;;;;;;;;5042022;28;20514;-81
2023/05/23 07:03:32;;;;;;;37.50;34.70;;;;;;;;;;5043092;28;20466;-80
2023/05/23 07:05:59;;;;;;;33.70;31.10;;;;;;;;;;5042428;28;20422;-81
2023/05/23 07:08:26;;;;;;;37.97;34.67;;;;;;;;;;5043043;28;20447;-81
2023/05/23 07:10:53;;;;;;;32.67;30.00;;;;;;;;;;5043208;28;20525;-81
2023/05/23 07:13:21;;;;;;;36.17;33.63;;;;;;;;;;5042637;28;20439;-81
2023/05/23 07:15:48;;;;;;;34.47;31.97;;;;;;;;;;5042306;28;20452;-81
2023/05/23 07:18:15;;;;;;;35.47;32.77;;;;;;;;;;5045178;28;20544;-79
2023/05/23 07:20:42;;;;;;;36.27;33.97;;;;;;;;;;5047452;28;20868;-81
2023/05/23 07:23:09;;;;;;;35.57;32.83;;;;;;;;;;5045695;28;20513;-80
2023/05/23 07:25:39;;;;;;;36.00;32.73;;;;;;;;;;5044255;28;21034;-81
2023/05/23 07:28:06;;;;;;;36.93;34.40;;;;;;;;;;5043910;28;20494;-81
2023/05/23 07:30:34;;;;;;;33.37;31.00;;;;;;;;;;5045040;28;20495;-81
2023/05/23 07:33:01;;;;;;;35.80;33.23;;;;;;;;;;5044416;28;20422;-81
2023/05/23 07:35:28;;;;;;;33.90;31.40;;;;;;;;;;5047371;28;20451;-80
2023/05/23 07:37:56;;;;;;;31.30;29.07;;;;;;;;;;5047091;28;20455;-81
2023/05/23 07:40:23;;;;;;;28.40;26.80;;;;;;;;;;5047733;28;20539;-81
2023/05/23 07:42:52;;;;;;;31.37;29.27;;;;;;;;;;5053952;28;20529;-81
2023/05/23 07:45:19;;;;;;;26.20;24.57;;;;;;;;;;5039141;28;20535;-81
2023/05/23 07:47:47;;;;;;;26.03;24.63;;;;;;;;;;5035157;28;20495;-80
2023/05/23 07:50:14;;;;;;;27.73;25.77;;;;;;;;;;5034704;28;20954;-80
2023/05/23 07:52:42;;;;;;;25.80;24.10;;;;;;;;;;5034672;28;20444;-80
2023/05/23 07:55:09;;;;;;;24.93;23.53;;;;;;;;;;5034739;28;20978;-81
2023/05/23 07:57:36;;;;;;;25.43;24.03;;;;;;;;;;5033533;28;20484;-81
2023/05/23 08:00:05;;;;;;;25.73;24.40;;;;;;;;;;5034437;28;20496;-81
2023/05/23 08:02:32;;;;;;;26.20;24.70;;;;;;;;;;5034217;28;20850;-81
2023/05/23 08:05:00;;;;;;;26.60;25.10;;;;;;;;;;5034174;28;20463;-81
2023/05/23 08:07:27;;;;;;;27.73;26.30;;;;;;;;;;5033569;28;20471;-81
2023/05/23 08:09:54;;;;;;;26.30;25.10;;;;;;;;;;5033823;28;20810;-78
2023/05/23 08:12:21;;;;;;;25.70;24.50;;;;;;;;;;5033799;28;20451;-81
2023/05/23 08:14:48;;;;;;;25.73;24.13;;;;;;;;;;5034839;28;20470;-81
2023/05/23 08:17:15;;;;;;;25.03;23.83;;;;;;;;;;5044790;28;20422;-80
2023/05/23 08:19:42;;;;;;;25.70;24.40;;;;;;;;;;5034758;28;21029;-80
2023/05/23 08:22:11;;;;;;;24.03;22.83;;;;;;;;;;5034435;28;20501;-80
2023/05/23 08:24:38;;;;;;;24.40;23.20;;;;;;;;;;5034635;28;20502;-80
2023/05/23 08:27:06;;;;;;;25.07;23.80;;;;;;;;;;5033681;28;20930;-80
2023/05/23 08:29:34;;;;;;;24.27;22.97;;;;;;;;;;5034297;28;20507;-81
2023/05/23 08:32:01;;;;;;;25.07;23.87;;;;;;;;;;5034480;28;20530;-80
2023/05/23 08:34:28;;;;;;;24.17;22.90;;;;;;;;;;5034661;28;20504;-80
2023/05/23 08:36:55;;;;;;;23.97;22.77;;;;;;;;;;5034242;28;20459;-81
2023/05/23 08:39:23;;;;;;;24.83;23.63;;;;;;;;;;5034129;28;20479;-80
2023/05/23 08:41:50;;;;;;;24.10;23.00;;;;;;;;;;5034374;28;20410;-80
2023/05/23 08:44:17;;;;;;;23.30;22.00;;;;;;;;;;5034177;28;20501;-80
2023/05/23 08:46:45;;;;;;;23.77;22.60;;;;;;;;;;5034477;28;20487;-80
2023/05/23 08:49:14;;;;;;;22.53;21.23;;;;;;;;;;5035722;28;20450;-80
2023/05/23 08:51:43;;;;;;;25.33;24.13;;;;;;;;;;5040075;28;20459;-80
2023/05/23 08:54:11;;;;;;;23.90;22.80;;;;;;;;;;5033645;28;20436;-81
2023/05/23 08:56:40;;;;;;;25.47;24.27;;;;;;;;;;5032451;28;21021;-81
2023/05/23 08:59:08;;;;;;;25.27;24.10;;;;;;;;;;5033419;28;20542;-80
2023/05/23 09:01:36;;;;;;;26.90;25.30;;;;;;;;;;5033377;28;20444;-80
2023/05/23 09:04:05;;;;;;;25.67;24.47;;;;;;;;;;5032938;28;20457;-81
2023/05/23 09:06:32;;;;;;;25.50;24.00;;;;;;;;;;5032801;28;20426;-80
2023/05/23 09:08:59;;;;;;;24.87;23.47;;;;;;;;;;5043488;28;20455;-80
2023/05/23 09:11:26;;;;;;;24.70;23.43;;;;;;;;;;5033637;28;20505;-80
2023/05/23 09:13:54;;;;;;;25.33;23.90;;;;;;;;;;5033518;28;20803;-80
2023/05/23 09:16:22;;;;;;;24.53;23.30;;;;;;;;;;5032458;28;20468;-79
2023/05/23 09:18:49;;;;;;;25.63;24.23;;;;;;;;;;5033384;28;20455;-80
2023/05/23 09:21:16;;;;;;;25.67;24.17;;;;;;;;;;5034187;28;20451;-80
2023/05/23 09:23:43;;;;;;;25.63;24.17;;;;;;;;;;5035981;28;21027;-79
2023/05/23 09:26:10;;;;;;;24.33;23.00;;;;;;;;;;5037896;28;20492;-79
2023/05/23 09:28:39;;;;;;;25.33;23.87;;;;;;;;;;5038516;28;20428;-80
2023/05/23 09:31:09;;;;;;;25.27;23.73;;;;;;;;;;5038418;28;20449;-81
2023/05/23 09:33:37;;;;;;;25.47;23.97;;;;;;;;;;5038303;28;20469;-80
2023/05/23 09:36:05;;;;;;;23.67;21.97;;;;;;;;;;5036843;28;21237;-80
2023/05/23 09:38:32;;;;;;;23.83;22.37;;;;;;;;;;5037599;28;20464;-80
2023/05/23 09:40:59;;;;;;;22.83;21.43;;;;;;;;;;5037896;28;20850;-80
2023/05/23 09:43:26;;;;;;;25.73;23.83;;;;;;;;;;5038121;28;20487;-80
2023/05/23 09:45:55;;;;;;;25.13;23.37;;;;;;;;;;5037795;28;20423;-80
2023/05/23 09:48:31;;;;;;;26.77;24.77;;;;;;;;;;5038599;28;20794;-80
2023/05/23 09:50:58;;;;;;;24.00;22.50;;;;;;;;;;5038285;28;20479;-80
2023/05/23 09:53:25;;;;;;;22.67;21.37;;;;;;;;;;5045742;28;20486;-81
2023/05/23 09:55:53;;;;;;;23.63;21.80;;;;;;;;;;5038970;28;20487;-80
2023/05/23 09:58:21;;;;;;;24.30;22.63;;;;;;;;;;5038602;28;20479;-81
2023/05/23 10:00:51;;;;;;;25.30;23.60;;;;;;;;;;5038080;28;20467;-81
2023/05/23 10:03:21;;;;;;;22.77;21.37;;;;;;;;;;5039805;28;20566;-80
2023/05/23 10:05:51;;;;;;;26.23;24.53;;;;;;;;;;5038076;28;20904;-80
2023/05/23 10:08:20;;;;;;;26.67;24.50;;;;;;;;;;5039053;28;20435;-80
2023/05/23 10:11:06;;;;;;;25.93;24.23;;;;;;;;;;5038724;28;20576;-81
2023/05/23 10:13:34;;;;;;;26.63;24.63;;;;;;;;;;5043958;28;20447;-81
2023/05/23 10:16:06;;;;;;;24.73;23.20;;;;;;;;;;5043148;28;20529;-80
2023/05/23 10:18:35;;;;;;;24.47;22.87;;;;;;;;;;5044005;28;20458;-80
2023/05/23 10:21:07;;;;;;;25.20;22.83;;;;;;;;;;5043063;28;20476;-80
2023/05/23 10:23:35;;;;;;;25.63;23.57;;;;;;;;;;5040041;28;20476;-79
2023/05/23 10:26:04;;;;;;;27.13;24.70;;;;;;;;;;5039735;28;20458;-79
2023/05/23 10:28:31;;;;;;;27.23;24.90;;;;;;;;;;5040059;28;20503;-79
2023/05/23 10:30:58;;;;;;;27.03;24.93;;;;;;;;;;5039866;28;20448;-79
2023/05/23 10:33:26;;;;;;;26.23;24.27;;;;;;;;;;5040152;28;20928;-80
2023/05/23 10:35:57;;;;;;;27.83;25.10;;;;;;;;;;5038567;28;20467;-79
2023/05/23 10:38:31;;;;;;;26.83;24.80;;;;;;;;;;5046171;28;20406;-80
2023/05/23 10:41:02;;;;;;;26.10;23.80;;;;;;;;;;5046002;28;21011;-80
2023/05/23 10:43:31;;;;;;;26.57;24.20;;;;;;;;;;5046285;28;20466;-81
2023/05/23 10:45:58;;;;;;;25.80;23.80;;;;;;;;;;5045458;28;20418;-80
2023/05/23 10:48:34;;;;;;;27.43;25.27;;;;;;;;;;5040361;28;20455;-79
2023/05/23 10:51:04;;;;;;;26.77;24.17;;;;;;;;;;5039811;28;20482;-79
2023/05/23 10:53:35;;;;;;;26.47;24.33;;;;;;;;;;5041548;28;20447;-80
2023/05/23 10:56:02;;;;;;;24.17;22.13;;;;;;;;;;5045656;28;20579;-80
2023/05/23 10:58:30;;;;;;;24.63;22.83;;;;;;;;;;5040563;28;20497;-80
2023/05/23 11:01:00;;;;;;;25.23;23.40;;;;;;;;;;5039859;28;20494;-80
2023/05/23 11:03:38;;;;;;;25.40;23.60;;;;;;;;;;5040185;28;20485;-79
2023/05/23 11:06:05;;;;;;;25.70;23.60;;;;;;;;;;5039191;28;20426;-80
2023/05/23 11:08:41;;;;;;;24.23;22.43;;;;;;;;;;5040040;28;20474;-79
2023/05/23 11:11:08;;;;;;;23.40;21.50;;;;;;;;;;5038773;28;20483;-79
2023/05/23 11:13:55;;;;;;;23.93;22.07;;;;;;;;;;5039761;28;20873;-79
2023/05/23 11:16:25;;;;;;;23.13;21.33;;;;;;;;;;5039729;28;20785;-79
2023/05/23 11:18:53;;;;;;;24.60;22.70;;;;;;;;;;5040065;28;20454;-80
2023/05/23 11:21:20;;;;;;;23.47;21.70;;;;;;;;;;5039316;28;20447;-80
2023/05/23 11:23:54;;;;;;;22.90;21.00;;;;;;;;;;5040093;28;20488;-79
2023/05/23 11:26:31;;;;;;;23.97;22.07;;;;;;;;;;5039267;28;20436;-79
2023/05/23 11:28:58;;;;;;;22.93;21.37;;;;;;;;;;5039669;28;20426;-80
2023/05/23 11:31:25;;;;;;;22.80;21.30;;;;;;;;;;5040092;28;20484;-79
2023/05/23 11:33:52;;;;;;;24.60;22.63;;;;;;;;;;5039478;28;20469;-79
2023/05/23 11:36:21;;;;;;;23.80;22.00;;;;;;;;;;5038576;28;20471;-79
2023/05/23 11:38:51;;;;;;;23.67;21.73;;;;;;;;;;5039702;28;20907;-80
2023/05/23 11:41:18;;;;;;;24.27;22.77;;;;;;;;;;5039162;28;20450;-80
2023/05/23 11:43:51;;;;;;;25.10;23.20;;;;;;;;;;5040940;28;20920;-79
2023/05/23 11:46:19;;;;;;;22.73;21.07;;;;;;;;;;5038891;28;20882;-80
2023/05/23 11:48:46;;;;;;;23.87;21.93;;;;;;;;;;5040727;28;20426;-80
2023/05/23 11:51:13;;;;;;;24.37;21.83;;;;;;;;;;5040049;28;20558;-80
2023/05/23 11:53:40;;;;;;;24.83;22.37;;;;;;;;;;5039935;28;20445;-79
2023/05/23 11:56:09;;;;;;;23.80;21.93;;;;;;;;;;5039443;28;20477;-80
2023/05/23 11:58:37;;;;;;;22.97;21.37;;;;;;;;;;5041774;28;20422;-80
2023/05/23 12:01:06;;;;;;;22.97;21.23;;;;;;;;;;5045168;28;20481;-79
2023/05/23 12:03:33;;;;;;;21.80;20.13;;;;;;;;;;5043202;28;20488;-80
2023/05/23 12:06:00;;;;;;;22.50;20.50;;;;;;;;;;5054208;28;20406;-80
2023/05/23 12:08:27;;;;;;;24.07;21.97;;;;;;;;;;5056676;28;20402;-80
2023/05/23 12:10:57;;;;;;;23.70;21.50;;;;;;;;;;5055082;28;20438;-80
2023/05/23 12:13:26;;;;;;;23.83;21.93;;;;;;;;;;5044959;28;20402;-80
2023/05/23 12:15:54;;;;;;;22.57;20.93;;;;;;;;;;5044100;28;20480;-80
2023/05/23 12:18:21;;;;;;;23.10;21.13;;;;;;;;;;5044624;28;20426;-79
2023/05/23 12:20:49;;;;;;;23.20;20.97;;;;;;;;;;5044147;28;20503;-80
2023/05/23 12:23:20;;;;;;;23.27;21.37;;;;;;;;;;5043765;28;20462;-80
2023/05/23 12:25:50;;;;;;;24.30;22.13;;;;;;;;;;5043141;28;20464;-80
2023/05/23 12:28:17;;;;;;;23.17;21.33;;;;;;;;;;5043613;28;20434;-80
2023/05/23 12:30:45;;;;;;;25.23;23.00;;;;;;;;;;5040068;28;20434;-80
2023/05/23 12:33:13;;;;;;;23.80;21.60;;;;;;;;;;5040251;28;20505;-80
2023/05/23 12:35:43;;;;;;;25.03;21.90;;;;;;;;;;5038140;28;20426;-80
2023/05/23 12:38:10;;;;;;;23.17;21.20;;;;;;;;;;5039109;28;20438;-80
2023/05/23 12:40:37;;;;;;;23.03;21.00;;;;;;;;;;5039855;28;20475;-80
2023/05/23 12:43:09;;;;;;;24.87;22.93;;;;;;;;;;5039638;28;20455;-79
2023/05/23 12:45:37;;;;;;;23.87;21.57;;;;;;;;;;5040473;28;20445;-80
2023/05/23 12:48:06;;;;;;;25.60;23.30;;;;;;;;;;5039988;28;20418;-80
2023/05/23 12:50:33;;;;;;;24.23;21.93;;;;;;;;;;5039469;28;20458;-80
2023/05/23 12:53:00;;;;;;;25.27;23.47;;;;;;;;;;5040064;28;20447;-80
2023/05/23 12:55:27;;;;;;;26.13;23.63;;;;;;;;;;5039744;28;20863;-80
2023/05/23 12:57:54;;;;;;;24.63;22.63;;;;;;;;;;5040317;28;20484;-80
2023/05/23 13:00:21;;;;;;;24.83;22.83;;;;;;;;;;5044124;28;20471;-80
2023/05/23 13:02:49;;;;;;;24.23;22.33;;;;;;;;;;5046797;28;20479;-80
2023/05/23 13:05:17;;;;;;;25.07;23.27;;;;;;;;;;5043982;28;20545;-80
2023/05/23 13:07:44;;;;;;;24.90;22.70;;;;;;;;;;5043459;28;20439;-80
2023/05/23 13:10:11;;;;;;;26.13;23.10;;;;;;;;;;5043973;28;20871;-79
2023/05/23 13:12:38;;;;;;;25.50;23.40;;;;;;;;;;5043948;28;20420;-80
2023/05/23 13:15:06;;;;;;;25.70;23.80;;;;;;;;;;5048438;28;20425;-80
2023/05/23 13:17:33;;;;;;;23.90;22.00;;;;;;;;;;5046114;28;20457;-80
2023/05/23 13:20:00;;;;;;;24.80;22.10;;;;;;;;;;5046546;28;20483;-80
2023/05/23 13:22:30;;;;;;;25.43;23.43;;;;;;;;;;5043240;28;20473;-80
2023/05/23 13:24:57;;;;;;;25.57;23.20;;;;;;;;;;5043051;28;20491;-80
2023/05/23 13:27:24;;;;;;;25.73;23.93;;;;;;;;;;5042748;28;20465;-80
2023/05/23 13:29:51;;;;;;;25.70;23.20;;;;;;;;;;5043605;28;20467;-80
2023/05/23 13:32:18;;;;;;;24.50;22.70;;;;;;;;;;5043710;28;20427;-80
2023/05/23 13:34:45;;;;;;;24.43;22.57;;;;;;;;;;5043178;28;20459;-80
2023/05/23 13:37:12;;;;;;;25.40;23.27;;;;;;;;;;5042512;28;20472;-80
2023/05/23 13:39:40;;;;;;;25.83;23.93;;;;;;;;;;5042586;28;20842;-80
2023/05/23 13:42:08;;;;;;;24.90;23.00;;;;;;;;;;5042921;28;20464;-80
2023/05/23 13:44:35;;;;;;;25.10;23.10;;;;;;;;;;5043511;28;20462;-82
2023/05/23 13:47:11;;;;;;;25.00;23.07;;;;;;;;;;5042527;28;20482;-80
2023/05/23 13:49:38;;;;;;;25.10;22.90;;;;;;;;;;5043036;28;20471;-80
2023/05/23 13:52:05;;;;;;;26.07;24.07;;;;;;;;;;5043056;28;20460;-80
2023/05/23 13:54:32;;;;;;;27.37;24.60;;;;;;;;;;5043031;28;20448;-79
2023/05/23 13:57:01;;;;;;;26.53;24.10;;;;;;;;;;5042036;28;20478;-80
2023/05/23 13:59:28;;;;;;;25.80;23.73;;;;;;;;;;5043255;28;20478;-80
2023/05/23 14:01:55;;;;;;;25.47;23.30;;;;;;;;;;5042006;28;20533;-80
2023/05/23 14:04:22;;;;;;;25.20;23.20;;;;;;;;;;5043244;28;20491;-80
2023/05/23 14:06:49;;;;;;;25.07;23.17;;;;;;;;;;5042474;28;20427;-80
2023/05/23 14:09:17;;;;;;;26.33;24.07;;;;;;;;;;5042332;28;20543;-80
2023/05/23 14:11:44;;;;;;;26.50;24.37;;;;;;;;;;5042463;28;20449;-80
2023/05/23 14:14:13;;;;;;;25.70;23.50;;;;;;;;;;5042796;28;20512;-79
2023/05/23 14:16:40;;;;;;;25.67;23.70;;;;;;;;;;5043062;28;20911;-80
2023/05/23 14:19:07;;;;;;;24.73;23.03;;;;;;;;;;5043527;28;20423;-80
2023/05/23 14:21:35;;;;;;;26.03;24.00;;;;;;;;;;5042692;28;20452;-80